createdAt,value
2023-03-23T15:58:11.790Z,32.16
2023-03-23T16:00:40.811Z,32.28
2023-03-23T16:03:13.239Z,32.68
2023-03-23T16:05:41.369Z,32.55
2023-03-23T16:08:11.666Z,32.16
2023-03-23T16:10:43.414Z,32.54
2023-03-23T16:13:11.695Z,33.15
2023-03-23T16:15:39.309Z,33.62
2023-03-23T16:18:07.048Z,33.96
2023-03-23T16:20:52.693Z,33.53
2023-03-23T16:23:20.469Z,34.09
2023-03-23T16:25:51.932Z,34.67
2023-03-23T16:28:21.406Z,34.72
2023-03-23T16:30:55.993Z,35.46
2023-03-23T16:33:24.653Z,35.60
2023-03-23T16:35:56.833Z,35.93
2023-03-23T16:38:26.970Z,36.03
2023-03-23T16:41:09.607Z,36.54
2023-03-23T16:43:54.046Z,36.60
2023-03-23T16:46:32.491Z,36.66
2023-03-23T16:49:06.052Z,36.83
2023-03-23T16:51:41.754Z,36.77
2023-03-23T16:54:13.488Z,36.52
2023-03-23T16:56:41.448Z,36.41
2023-03-23T16:59:09.237Z,36.62
2023-03-23T17:01:39.671Z,37.43
2023-03-23T17:04:11.871Z,38.28
2023-03-23T17:06:39.621Z,39.45
2023-03-23T17:09:10.732Z,39.82
2023-03-23T17:11:38.295Z,40.53
2023-03-23T17:14:10.052Z,40.83
2023-03-23T17:16:42.071Z,40.73
2023-03-23T17:19:10.187Z,41.72
2023-03-23T17:21:40.827Z,42.18
2023-03-23T17:24:11.727Z,43.14
2023-03-23T17:26:39.695Z,42.93
2023-03-23T17:29:07.447Z,42.81
2023-03-23T17:31:35.827Z,43.22
2023-03-23T17:34:03.975Z,43.78
2023-03-23T17:36:32.010Z,44.08
2023-03-23T17:38:59.917Z,44.64
2023-03-23T17:41:28.329Z,45.00
2023-03-23T17:43:56.104Z,44.91
2023-03-23T17:46:24.618Z,44.74
2023-03-23T17:48:53.127Z,45.77
2023-03-23T17:51:20.918Z,45.38
2023-03-23T17:53:48.632Z,47.01
2023-03-23T17:56:16.955Z,46.35
2023-03-23T17:58:44.778Z,47.48
2023-03-23T18:01:12.826Z,46.92
2023-03-23T18:03:41.256Z,47.50
2023-03-23T18:06:09.609Z,47.39
2023-03-23T18:08:37.937Z,46.92
2023-03-23T18:11:06.665Z,47.32
2023-03-23T18:13:35.988Z,46.62
2023-03-23T18:16:05.897Z,45.86
2023-03-23T18:18:34.645Z,45.35
2023-03-23T18:21:05.871Z,45.48
2023-03-23T18:23:43.054Z,45.24
2023-03-23T18:26:17.908Z,45.42
2023-03-23T18:28:46.225Z,46.09
2023-03-23T18:31:16.236Z,46.69
2023-03-23T18:33:46.412Z,47.46
2023-03-23T18:36:17.953Z,47.03
2023-03-23T18:38:46.762Z,46.78
2023-03-23T18:41:15.363Z,46.59
2023-03-23T18:43:43.680Z,46.88
2023-03-23T18:46:11.678Z,46.35
2023-03-23T18:48:39.559Z,46.25
2023-03-23T18:51:07.926Z,46.19
2023-03-23T18:53:36.003Z,46.31
2023-03-23T18:56:08.309Z,46.24
2023-03-23T18:58:37.327Z,46.42
2023-03-23T19:01:09.543Z,47.11
2023-03-23T19:03:38.082Z,47.67
2023-03-23T19:06:07.977Z,47.86
2023-03-23T19:08:35.963Z,48.46
2023-03-23T19:11:04.839Z,48.78
2023-03-23T19:13:34.108Z,48.79
2023-03-23T19:16:02.407Z,48.70
2023-03-23T19:18:30.754Z,48.42
2023-03-23T19:23:31.006Z,47.68
2023-03-23T19:25:59.191Z,47.88
2023-03-23T19:30:58.762Z,48.38
2023-03-23T19:33:26.928Z,48.34
2023-03-23T19:36:05.874Z,48.64
2023-03-23T19:38:38.243Z,49.03
2023-03-23T19:41:06.691Z,49.42
2023-03-23T19:43:36.281Z,50.13
2023-03-23T19:46:05.949Z,50.30
2023-03-23T19:48:34.525Z,50.74
2023-03-23T19:51:05.870Z,50.64
2023-03-23T19:53:34.669Z,51.02
2023-03-23T19:56:03.750Z,51.53
2023-03-23T19:58:34.625Z,51.47
2023-03-23T20:01:03.635Z,51.63
2023-03-23T20:03:32.198Z,51.04
2023-03-23T20:06:06.944Z,51.07
2023-03-23T20:08:35.578Z,51.07
2023-03-23T20:11:10.839Z,50.86
2023-03-23T20:13:40.192Z,51.45
2023-03-23T20:16:09.037Z,51.82
2023-03-23T20:18:37.931Z,51.56
2023-03-23T20:21:11.813Z,51.41
2023-03-23T20:23:41.276Z,51.56
2023-03-23T20:26:15.583Z,52.21
2023-03-23T20:28:44.013Z,52.02
2023-03-23T20:31:23.978Z,50.71
2023-03-23T20:34:01.162Z,51.09
2023-03-23T20:36:35.336Z,52.08
2023-03-23T20:39:06.544Z,51.64
2023-03-23T20:41:35.278Z,51.88
2023-03-23T20:44:05.068Z,51.96
2023-03-23T20:46:33.640Z,52.61
2023-03-23T20:49:02.427Z,52.14
2023-03-23T20:51:30.335Z,53.29
2023-03-23T20:53:58.250Z,53.04
2023-03-23T20:56:26.715Z,52.63
2023-03-23T20:58:55.976Z,52.27
2023-03-23T21:01:24.809Z,52.47
2023-03-23T21:03:53.690Z,53.02
2023-03-23T21:06:21.628Z,52.99
2023-03-23T21:08:49.979Z,52.75
2023-03-23T21:11:21.124Z,52.87
2023-03-23T21:13:49.491Z,52.78
2023-03-23T21:16:18.227Z,52.99
2023-03-23T21:18:46.441Z,52.96
2023-03-23T21:21:14.219Z,53.23
2023-03-23T21:23:41.868Z,53.48
2023-03-23T21:26:10.665Z,54.22
2023-03-23T21:28:38.735Z,53.87
2023-03-23T21:31:06.831Z,54.08
2023-03-23T21:33:35.179Z,54.41
2023-03-23T21:36:02.932Z,54.62
2023-03-23T21:38:31.205Z,53.85
2023-03-23T21:41:00.679Z,54.19
2023-03-23T21:43:28.474Z,54.54
2023-03-23T21:45:57.772Z,54.81
2023-03-23T21:48:27.146Z,54.44
2023-03-23T21:50:56.590Z,54.75
2023-03-23T21:53:24.500Z,54.71
2023-03-23T21:55:52.738Z,55.07
2023-03-23T21:58:25.401Z,54.77
2023-03-23T22:00:54.305Z,55.14
2023-03-23T22:03:23.521Z,55.25
2023-03-23T22:05:52.990Z,54.92
2023-03-23T22:08:21.897Z,55.23
2023-03-23T22:11:00.450Z,55.67
2023-03-23T22:13:30.995Z,55.45
2023-03-23T22:16:00.756Z,54.97
2023-03-23T22:18:28.512Z,55.76
2023-03-23T22:20:56.691Z,56.05
2023-03-23T22:23:27.214Z,56.03
2023-03-23T22:25:55.009Z,56.63
2023-03-23T22:28:24.575Z,56.96
2023-03-23T22:31:00.877Z,57.18
2023-03-23T22:33:28.902Z,57.62
2023-03-23T22:35:57.195Z,58.30
2023-03-23T22:38:25.030Z,58.35
2023-03-23T22:40:59.978Z,58.59
2023-03-23T22:43:28.506Z,58.69
2023-03-23T22:45:56.333Z,58.54
2023-03-23T22:48:25.761Z,58.73
2023-03-23T22:50:54.387Z,58.74
2023-03-23T22:53:22.247Z,59.33
2023-03-23T22:55:51.577Z,59.33
2023-03-23T22:58:19.589Z,59.38
2023-03-23T23:00:50.266Z,59.02
2023-03-23T23:03:18.119Z,59.42
2023-03-23T23:05:49.283Z,60.86
2023-03-23T23:08:18.176Z,60.25
2023-03-23T23:10:48.852Z,60.32
2023-03-23T23:13:17.070Z,60.76
2023-03-23T23:15:47.556Z,60.95
2023-03-23T23:18:15.978Z,60.55
2023-03-23T23:20:43.973Z,60.83
2023-03-23T23:23:11.740Z,60.13
2023-03-23T23:25:40.023Z,60.97
2023-03-23T23:28:07.731Z,61.00
2023-03-23T23:30:35.674Z,60.72
2023-03-23T23:33:04.448Z,60.59
2023-03-23T23:35:32.202Z,60.89
2023-03-23T23:38:00.476Z,61.53
2023-03-23T23:40:28.489Z,61.44
2023-03-23T23:42:56.211Z,61.79
2023-03-23T23:45:24.048Z,61.58
2023-03-23T23:47:52.694Z,62.01
2023-03-23T23:50:20.706Z,61.54
2023-03-23T23:52:48.521Z,61.65
2023-03-23T23:55:17.328Z,61.47
2023-03-23T23:57:46.459Z,61.91
